Time;durP1;ratioP1;P1;durP2;ratioP2;P2;SDS_P1;SDS_P2;PMS_P1;PMS_P2;Temp;Humidity;BMP_temperature;BMP_pressure;BME280_temperature;BME280_humidity;BME280_pressure;Samples;Min_cycle;Max_cycle;Signal;HPM_P1;HPM_P2
2023/12/06 00:03:39;;;;;;;69.73;40.97;;;2.30;99.90;;;;;;10065895;29;20231;-78
2023/12/06 00:08:41;;;;;;;72.10;41.47;;;2.00;99.90;;;;;;10074658;29;20241;-78
2023/12/06 00:13:44;;;;;;;43.03;26.37;;;2.20;99.90;;;;;;10075975;29;20789;-77
2023/12/06 00:18:48;;;;;;;70.43;42.27;;;2.60;99.90;;;;;;10084305;29;20292;-78
2023/12/06 00:23:51;;;;;;;56.10;30.33;;;2.80;99.90;;;;;;10085791;29;20649;-78
2023/12/06 00:28:53;;;;;;;63.70;37.80;;;2.90;99.90;;;;;;10095221;29;20691;-78
2023/12/06 00:33:56;;;;;;;58.63;35.60;;;2.90;99.90;;;;;;10081564;29;20700;-78
2023/12/06 00:38:58;;;;;;;58.37;33.60;;;3.20;99.90;;;;;;10085249;29;20240;-77
2023/12/06 00:44:03;;;;;;;60.80;31.00;;;2.80;99.90;;;;;;10090540;29;20242;-78
2023/12/06 00:49:05;;;;;;;52.67;30.03;;;2.80;99.90;;;;;;10066503;29;20264;-78
2023/12/06 00:54:08;;;;;;;43.13;24.37;;;3.00;99.90;;;;;;10093152;29;20705;-77
2023/12/06 00:59:10;;;;;;;60.00;35.10;;;3.10;99.90;;;;;;10090253;29;20263;-78
2023/12/06 01:04:13;;;;;;;71.80;42.47;;;3.00;99.90;;;;;;10092086;29;20276;-78
2023/12/06 01:09:16;;;;;;;38.27;22.67;;;3.20;99.90;;;;;;10090865;29;20314;-78
2023/12/06 01:14:19;;;;;;;81.13;47.03;;;3.30;99.90;;;;;;10073313;29;20843;-77
2023/12/06 01:19:21;;;;;;;46.57;26.03;;;3.20;99.90;;;;;;10073688;29;20688;-77
2023/12/06 01:24:24;;;;;;;66.47;37.43;;;3.20;99.90;;;;;;10084718;29;20251;-79
2023/12/06 01:29:26;;;;;;;64.60;37.57;;;2.70;99.90;;;;;;10072442;29;20720;-78
2023/12/06 01:34:29;;;;;;;58.10;35.63;;;2.50;99.90;;;;;;10079551;29;20232;-78
2023/12/06 01:39:32;;;;;;;66.30;35.53;;;3.00;99.90;;;;;;10091234;29;20712;-78
2023/12/06 01:44:34;;;;;;;50.03;29.10;;;2.60;99.90;;;;;;10081045;29;20694;-78
2023/12/06 01:49:37;;;;;;;45.03;28.43;;;2.40;99.90;;;;;;10083980;29;20277;-78
2023/12/06 01:54:39;;;;;;;54.83;34.13;;;2.70;99.90;;;;;;10082978;29;20238;-78
2023/12/06 01:59:44;;;;;;;53.70;31.10;;;2.70;99.90;;;;;;10088015;29;20245;-78
2023/12/06 02:04:47;;;;;;;65.70;39.37;;;3.20;99.90;;;;;;10079634;29;20294;-78
2023/12/06 02:09:49;;;;;;;77.53;44.80;;;3.00;99.90;;;;;;10069972;29;20266;-78
2023/12/06 02:14:52;;;;;;;79.63;45.10;;;2.50;99.90;;;;;;10085647;29;20235;-78
2023/12/06 02:19:55;;;;;;;72.97;42.63;;;1.90;99.90;;;;;;10080010;29;20237;-78
2023/12/06 02:24:59;;;;;;;73.13;40.57;;;2.00;99.90;;;;;;10053802;29;20242;-78
2023/12/06 02:30:02;;;;;;;48.33;29.00;;;1.90;99.90;;;;;;10066374;29;20263;-78
2023/12/06 02:35:23;;;;;;;50.97;27.10;;;1.90;99.90;;;;;;10082633;29;20708;-78
2023/12/06 02:40:29;;;;;;;41.37;27.97;;;2.00;99.90;;;;;;10091678;29;20724;-78
2023/12/06 02:45:31;;;;;;;32.33;19.17;;;2.20;99.90;;;;;;10070746;29;20237;-78
2023/12/06 02:50:34;;;;;;;48.07;26.43;;;2.20;99.90;;;;;;10067601;29;20310;-78
2023/12/06 02:55:36;;;;;;;61.83;35.27;;;2.20;99.90;;;;;;10053646;29;20310;-78
2023/12/06 03:00:39;;;;;;;66.33;35.30;;;2.50;99.90;;;;;;10075065;29;20691;-78
2023/12/06 03:05:41;;;;;;;63.03;36.43;;;2.50;99.90;;;;;;10071158;29;20289;-78
2023/12/06 03:10:44;;;;;;;64.90;35.80;;;3.30;99.90;;;;;;10082424;29;21098;-78
2023/12/06 03:15:47;;;;;;;61.90;36.83;;;3.30;99.90;;;;;;10087458;29;20287;-78
2023/12/06 03:20:49;;;;;;;52.80;29.23;;;3.00;99.90;;;;;;10079722;29;20243;-78
2023/12/06 03:25:52;;;;;;;50.53;30.50;;;3.20;99.90;;;;;;10081214;29;20264;-78
2023/12/06 03:30:54;;;;;;;82.57;47.27;;;3.50;99.90;;;;;;10084320;29;20263;-78
2023/12/06 03:35:57;;;;;;;56.20;34.47;;;3.50;99.90;;;;;;10069026;29;20236;-78
2023/12/06 03:41:01;;;;;;;60.53;35.07;;;3.00;99.90;;;;;;10072085;29;20242;-78
2023/12/06 03:46:03;;;;;;;52.37;27.83;;;3.00;99.90;;;;;;10064833;29;20236;-79
2023/12/06 03:51:07;;;;;;;54.63;30.77;;;3.30;99.90;;;;;;10081806;29;20255;-78
2023/12/06 03:56:10;;;;;;;53.43;29.27;;;3.10;99.90;;;;;;10055930;29;20235;-78
2023/12/06 04:01:12;;;;;;;57.97;34.63;;;2.70;99.90;;;;;;10086474;29;20325;-78
2023/12/06 04:06:15;;;;;;;42.03;22.43;;;3.10;99.90;;;;;;10058926;29;20246;-78
2023/12/06 04:11:18;;;;;;;36.97;19.73;;;2.70;99.90;;;;;;10088558;29;20307;-78
2023/12/06 04:16:20;;;;;;;56.93;29.50;;;3.40;99.90;;;;;;10058210;29;20243;-78
2023/12/06 04:21:23;;;;;;;52.10;28.43;;;3.00;99.90;;;;;;10070922;29;20637;-78
2023/12/06 04:26:26;;;;;;;60.93;35.93;;;3.20;99.90;;;;;;10090754;29;20300;-78
2023/12/06 04:31:29;;;;;;;78.43;44.77;;;4.20;99.90;;;;;;10087857;29;20260;-78
2023/12/06 04:36:32;;;;;;;44.97;24.57;;;4.40;99.90;;;;;;10094794;29;20247;-79
2023/12/06 04:41:34;;;;;;;70.70;39.30;;;3.90;99.90;;;;;;10078282;29;20480;-78
2023/12/06 04:46:37;;;;;;;30.80;19.17;;;4.50;99.90;;;;;;10081446;29;20309;-78
2023/12/06 04:51:39;;;;;;;29.70;16.13;;;4.90;99.90;;;;;;10094975;29;20266;-78
2023/12/06 04:56:42;;;;;;;53.23;31.67;;;4.70;99.90;;;;;;10087598;29;20704;-78
2023/12/06 05:01:44;;;;;;;54.73;32.00;;;4.20;99.90;;;;;;10085144;29;20244;-78
2023/12/06 05:06:47;;;;;;;49.17;28.27;;;3.50;99.90;;;;;;10083524;29;20241;-79
2023/12/06 05:11:50;;;;;;;79.00;43.10;;;2.80;99.90;;;;;;10090267;29;20837;-78
2023/12/06 05:16:52;;;;;;;38.20;21.63;;;2.70;99.90;;;;;;10063720;29;20694;-78
2023/12/06 05:21:55;;;;;;;48.13;26.73;;;3.70;99.90;;;;;;10094419;29;20249;-78
2023/12/06 05:26:57;;;;;;;40.97;23.80;;;3.50;99.90;;;;;;10077556;29;20291;-79
2023/12/06 05:32:00;;;;;;;72.73;42.50;;;3.00;99.90;;;;;;10073245;29;20246;-79
2023/12/06 05:37:03;;;;;;;62.70;37.90;;;2.50;99.90;;;;;;10068949;29;20293;-79
2023/12/06 05:42:05;;;;;;;39.53;22.07;;;2.00;99.90;;;;;;10077499;29;20300;-79
2023/12/06 05:47:08;;;;;;;70.47;37.77;;;1.90;99.90;;;;;;10072136;29;20627;-78
2023/12/06 05:52:10;;;;;;;84.00;48.10;;;2.10;99.90;;;;;;10093672;29;20250;-79
2023/12/06 05:57:13;;;;;;;57.17;33.80;;;1.60;99.90;;;;;;10094805;29;20222;-78
2023/12/06 06:02:15;;;;;;;60.17;35.77;;;3.30;99.90;;;;;;10083921;29;20926;-78
2023/12/06 06:07:18;;;;;;;75.17;42.80;;;3.00;99.90;;;;;;10054865;29;20623;-78
2023/12/06 06:12:21;;;;;;;90.93;49.53;;;2.30;99.90;;;;;;10070189;29;20295;-79
2023/12/06 06:17:23;;;;;;;51.70;29.03;;;1.90;99.90;;;;;;10092217;29;20234;-79
2023/12/06 06:22:27;;;;;;;73.50;41.57;;;1.90;99.90;;;;;;10091693;29;20237;-79
2023/12/06 06:27:29;;;;;;;61.17;34.90;;;2.50;99.90;;;;;;10090496;29;20279;-78
2023/12/06 06:32:32;;;;;;;72.07;37.73;;;3.00;99.90;;;;;;10064705;29;20311;-78
2023/12/06 06:37:34;;;;;;;55.47;29.87;;;3.30;99.90;;;;;;10092178;29;20246;-78
2023/12/06 06:42:37;;;;;;;83.47;42.80;;;3.60;99.90;;;;;;10091318;29;20276;-78
2023/12/06 06:47:41;;;;;;;77.60;40.67;;;3.40;99.90;;;;;;10098539;29;20684;-79
2023/12/06 06:52:43;;;;;;;56.40;34.20;;;2.60;99.90;;;;;;10057706;29;20314;-79
2023/12/06 06:57:46;;;;;;;70.20;38.50;;;2.00;99.90;;;;;;10053483;29;20248;-79
2023/12/06 07:02:49;;;;;;;63.37;32.27;;;2.60;99.90;;;;;;10053189;29;20249;-79
2023/12/06 07:07:52;;;;;;;60.77;33.17;;;2.80;99.90;;;;;;10053673;29;20633;-78
2023/12/06 07:12:54;;;;;;;94.97;51.87;;;2.50;99.90;;;;;;10053141;29;20262;-78
2023/12/06 07:17:57;;;;;;;96.07;49.97;;;1.50;99.90;;;;;;10058030;29;20878;-78
2023/12/06 07:23:00;;;;;;;89.53;48.60;;;1.70;99.90;;;;;;10081180;29;20212;-78
2023/12/06 07:28:03;;;;;;;87.10;44.30;;;1.70;99.90;;;;;;10053523;29;20780;-78
2023/12/06 07:33:09;;;;;;;67.80;38.13;;;2.00;99.90;;;;;;10054873;29;20267;-79
2023/12/06 07:38:13;;;;;;;70.60;39.10;;;2.10;99.90;;;;;;10060161;29;20757;-78
2023/12/06 07:43:15;;;;;;;63.73;33.30;;;2.30;99.90;;;;;;10094069;29;20237;-79
2023/12/06 07:48:18;;;;;;;57.37;32.50;;;1.90;99.90;;;;;;10098738;29;20246;-79
2023/12/06 07:53:21;;;;;;;64.10;35.70;;;2.20;99.90;;;;;;10079042;29;20260;-78
2023/12/06 07:58:25;;;;;;;83.50;43.00;;;2.20;99.90;;;;;;10095316;29;20296;-78
2023/12/06 08:03:31;;;;;;;81.83;39.87;;;2.40;99.90;;;;;;10087491;29;20242;-78
2023/12/06 08:08:34;;;;;;;53.67;27.20;;;2.00;99.90;;;;;;10109764;29;20273;-77
2023/12/06 08:13:36;;;;;;;52.13;24.47;;;2.50;99.90;;;;;;10106251;29;20772;-77
2023/12/06 08:18:38;;;;;;;91.67;49.73;;;2.80;99.90;;;;;;10080688;29;20202;-77
2023/12/06 08:23:41;;;;;;;87.20;44.03;;;2.90;99.90;;;;;;10084884;29;20191;-78
2023/12/06 08:28:44;;;;;;;45.53;24.87;;;2.80;99.90;;;;;;10102826;29;20236;-78
2023/12/06 08:33:46;;;;;;;50.17;27.03;;;3.40;99.90;;;;;;10064065;29;20954;-78
2023/12/06 08:38:49;;;;;;;85.47;43.90;;;3.80;99.90;;;;;;10065994;29;20201;-78
2023/12/06 08:43:51;;;;;;;106.57;54.63;;;3.80;99.90;;;;;;10068768;29;20238;-78
2023/12/06 08:48:55;;;;;;;97.07;50.40;;;3.00;99.90;;;;;;10058204;29;20252;-78
2023/12/06 08:53:57;;;;;;;73.00;38.63;;;3.00;99.90;;;;;;10057609;29;20695;-78
2023/12/06 08:59:00;;;;;;;56.93;32.13;;;3.50;99.90;;;;;;10078331;29;20219;-78
2023/12/06 09:04:02;;;;;;;75.07;38.23;;;3.30;99.90;;;;;;10077286;29;20242;-78
2023/12/06 09:09:05;;;;;;;60.50;31.37;;;2.80;99.90;;;;;;10095553;29;20300;-78
2023/12/06 09:14:07;;;;;;;86.40;43.00;;;3.30;99.90;;;;;;10099318;29;20635;-78
2023/12/06 09:19:10;;;;;;;77.07;37.13;;;3.00;99.90;;;;;;10099420;29;20211;-77
2023/12/06 09:24:14;;;;;;;63.43;33.43;;;2.60;99.90;;;;;;10090195;29;20572;-80
2023/12/06 09:29:17;;;;;;;62.60;33.70;;;2.80;99.90;;;;;;10090045;29;20329;-77
2023/12/06 09:34:20;;;;;;;63.50;29.33;;;3.00;99.90;;;;;;10059645;29;20250;-77
2023/12/06 09:39:38;;;;;;;59.90;34.17;;;3.40;99.90;;;;;;10060486;29;21152;-78
2023/12/06 09:44:45;;;;;;;85.37;46.63;;;3.80;99.90;;;;;;10088674;29;20211;-78
2023/12/06 09:49:47;;;;;;;44.80;20.00;;;3.70;99.90;;;;;;10097535;29;20263;-77
2023/12/06 09:54:51;;;;;;;102.70;53.67;;;4.50;99.90;;;;;;10093234;29;20280;-77
2023/12/06 09:59:53;;;;;;;75.40;41.40;;;4.20;99.90;;;;;;10080560;29;20327;-80
2023/12/06 10:04:58;;;;;;;61.27;32.03;;;3.90;99.90;;;;;;10066606;29;20586;-77
2023/12/06 10:10:01;;;;;;;84.57;44.63;;;3.70;99.90;;;;;;10074624;29;20373;-78
2023/12/06 10:15:05;;;;;;;96.07;51.30;;;3.60;99.90;;;;;;10090922;29;20319;-77
2023/12/06 10:20:08;;;;;;;77.80;41.33;;;3.40;99.90;;;;;;10084424;29;20211;-78
2023/12/06 10:25:11;;;;;;;110.63;57.13;;;3.70;99.90;;;;;;10076692;29;20214;-78
2023/12/06 10:30:22;;;;;;;109.53;61.17;;;3.50;99.90;;;;;;10084536;29;20234;-78
2023/12/06 10:35:25;;;;;;;72.57;33.80;;;3.00;99.90;;;;;;10081418;29;20262;-78
2023/12/06 10:40:29;;;;;;;93.57;47.43;;;4.40;99.90;;;;;;10091441;29;20238;-78
2023/12/06 10:45:35;;;;;;;115.60;60.37;;;4.50;99.90;;;;;;10092965;29;20294;-77
2023/12/06 10:50:39;;;;;;;127.77;65.40;;;4.50;99.90;;;;;;10092270;29;20198;-78
2023/12/06 10:55:42;;;;;;;116.90;63.00;;;3.70;99.90;;;;;;10091648;29;20672;-78
2023/12/06 11:00:46;;;;;;;81.27;42.73;;;3.30;99.90;;;;;;10091303;29;20779;-77
2023/12/06 11:05:53;;;;;;;100.40;48.50;;;3.30;99.90;;;;;;10090687;29;20271;-77
2023/12/06 11:11:27;;;;;;;86.30;44.43;;;3.50;99.90;;;;;;10090866;29;20219;-78
2023/12/06 11:16:54;;;;;;;88.93;45.23;;;3.80;99.90;;;;;;10069212;29;20207;-78
2023/12/06 11:21:56;;;;;;;77.07;36.47;;;3.70;99.90;;;;;;10084401;29;20205;-78
2023/12/06 11:26:59;;;;;;;99.23;48.07;;;3.60;99.90;;;;;;10091677;29;20249;-79
2023/12/06 11:32:02;;;;;;;95.43;53.23;;;3.50;99.90;;;;;;10090780;29;20256;-78
2023/12/06 11:37:07;;;;;;;89.60;43.10;;;3.70;99.90;;;;;;10092965;29;20567;-78
2023/12/06 11:42:16;;;;;;;69.73;37.07;;;3.80;99.90;;;;;;10092169;29;20215;-78
2023/12/06 11:47:26;;;;;;;79.77;41.83;;;4.60;99.90;;;;;;10056905;29;20212;-78
2023/12/06 11:52:29;;;;;;;54.93;26.10;;;3.70;99.90;;;;;;10091558;29;20285;-78
2023/12/06 11:57:31;;;;;;;77.00;37.70;;;4.30;99.90;;;;;;10091393;29;20264;-77
2023/12/06 12:02:34;;;;;;;76.43;37.90;;;4.40;99.90;;;;;;10075547;29;20692;-78
2023/12/06 12:07:38;;;;;;;80.23;38.80;;;4.10;99.90;;;;;;10054272;29;20248;-78
2023/12/06 12:12:41;;;;;;;84.27;36.57;;;3.60;99.90;;;;;;10054334;29;20296;-77
2023/12/06 12:17:44;;;;;;;87.23;46.90;;;3.70;99.90;;;;;;10054970;29;20217;-77
2023/12/06 12:22:50;;;;;;;71.03;34.17;;;3.80;99.90;;;;;;10074010;29;20239;-78
2023/12/06 12:27:53;;;;;;;95.30;47.67;;;3.90;99.90;;;;;;10093331;29;20243;-76
2023/12/06 12:32:57;;;;;;;97.63;47.17;;;4.00;99.90;;;;;;10062477;29;20243;-79
2023/12/06 12:38:00;;;;;;;80.87;41.10;;;4.20;99.90;;;;;;10060471;29;20739;-78
2023/12/06 12:43:04;;;;;;;89.90;47.70;;;3.80;99.90;;;;;;10059506;29;20261;-78
2023/12/06 12:48:07;;;;;;;83.33;45.07;;;3.50;99.90;;;;;;10086438;29;20236;-78
2023/12/06 12:53:13;;;;;;;91.40;46.60;;;3.60;99.90;;;;;;10096634;29;20328;-79
2023/12/06 12:58:16;;;;;;;75.70;40.53;;;3.60;99.90;;;;;;10056508;29;20226;-79
2023/12/06 13:03:19;;;;;;;68.93;35.10;;;3.80;99.90;;;;;;10057264;29;20244;-78
2023/12/06 13:08:22;;;;;;;67.70;35.23;;;4.80;99.90;;;;;;10056059;29;20242;-78
2023/12/06 13:13:25;;;;;;;97.27;53.77;;;4.80;99.90;;;;;;10080768;29;20326;-78
2023/12/06 13:18:30;;;;;;;76.43;38.83;;;4.40;99.90;;;;;;10093854;29;20298;-79
2023/12/06 13:23:35;;;;;;;78.93;39.40;;;4.70;99.90;;;;;;10073390;29;20249;-77
2023/12/06 13:28:37;;;;;;;90.47;47.20;;;4.90;99.90;;;;;;10072111;29;20322;-78
2023/12/06 13:33:40;;;;;;;75.10;37.40;;;5.20;99.90;;;;;;10091480;29;20259;-77
2023/12/06 13:38:43;;;;;;;75.03;40.27;;;5.00;99.90;;;;;;10074767;29;20232;-78
2023/12/06 13:43:45;;;;;;;40.20;23.83;;;4.10;99.90;;;;;;10071078;29;20245;-78
2023/12/06 13:48:48;;;;;;;93.50;50.13;;;4.90;99.90;;;;;;10092359;29;20245;-78
2023/12/06 13:53:52;;;;;;;98.00;52.00;;;4.50;99.90;;;;;;10091454;29;20330;-78
2023/12/06 13:58:55;;;;;;;106.57;57.80;;;4.20;99.90;;;;;;10092648;29;20310;-78
2023/12/06 14:03:58;;;;;;;92.00;52.63;;;3.40;99.90;;;;;;10092514;29;20245;-78
2023/12/06 14:09:02;;;;;;;76.10;39.03;;;3.00;99.90;;;;;;10079272;29;20238;-79
2023/12/06 14:14:05;;;;;;;90.20;49.80;;;3.20;99.90;;;;;;10091074;29;20254;-78
2023/12/06 14:19:08;;;;;;;88.33;43.53;;;3.20;99.90;;;;;;10072437;29;20267;-78
2023/12/06 14:24:11;;;;;;;85.23;42.67;;;2.70;99.90;;;;;;10091221;29;20234;-79
2023/12/06 14:29:15;;;;;;;79.30;41.70;;;2.60;99.90;;;;;;10075720;29;20275;-79
2023/12/06 14:34:17;;;;;;;105.20;56.03;;;2.20;99.90;;;;;;10088466;29;20344;-79
2023/12/06 14:39:20;;;;;;;97.37;50.30;;;2.20;99.90;;;;;;10075002;29;20846;-79
2023/12/06 14:44:22;;;;;;;104.53;54.80;;;2.00;99.90;;;;;;10051766;29;20237;-79
2023/12/06 14:49:26;;;;;;;102.97;54.23;;;2.00;99.90;;;;;;10051832;29;20252;-79
2023/12/06 14:54:29;;;;;;;83.23;42.67;;;1.80;99.90;;;;;;10065719;29;20257;-78
2023/12/06 14:59:33;;;;;;;99.60;52.07;;;1.70;99.90;;;;;;10072296;29;20244;-79
2023/12/06 15:04:35;;;;;;;100.77;53.67;;;1.80;99.90;;;;;;10062883;29;20241;-78
2023/12/06 15:09:38;;;;;;;105.67;48.33;;;1.40;99.90;;;;;;10050642;29;20237;-78
2023/12/06 15:14:40;;;;;;;97.53;49.50;;;1.30;99.90;;;;;;10049467;29;20318;-79
2023/12/06 15:19:46;;;;;;;61.70;29.23;;;1.60;99.90;;;;;;10068995;29;20282;-78
2023/12/06 15:24:49;;;;;;;89.27;45.50;;;3.10;99.90;;;;;;10071045;29;20305;-79
2023/12/06 15:29:52;;;;;;;72.87;38.97;;;3.20;99.90;;;;;;10076135;29;20336;-78
2023/12/06 15:34:54;;;;;;;102.53;53.43;;;3.10;99.90;;;;;;10086407;29;20263;-78
2023/12/06 15:39:57;;;;;;;102.50;52.87;;;2.80;99.90;;;;;;10085231;29;20290;-79
2023/12/06 15:45:00;;;;;;;72.10;38.03;;;2.50;99.90;;;;;;10087178;29;20238;-78
2023/12/06 15:50:04;;;;;;;82.63;41.67;;;2.10;99.90;;;;;;10086370;29;20242;-78
2023/12/06 15:55:07;;;;;;;87.10;45.10;;;1.90;99.90;;;;;;10089928;29;20333;-78
2023/12/06 16:00:11;;;;;;;91.87;47.67;;;1.60;99.90;;;;;;10094133;29;20233;-78
2023/12/06 16:05:14;;;;;;;69.93;37.50;;;1.20;99.90;;;;;;10093938;29;20262;-78
2023/12/06 16:10:17;;;;;;;89.13;45.73;;;1.40;99.90;;;;;;10105300;29;20233;-78
2023/12/06 16:15:19;;;;;;;77.37;41.70;;;1.50;99.90;;;;;;10091002;29;20265;-79
2023/12/06 16:20:22;;;;;;;88.93;44.77;;;2.00;99.90;;;;;;10090749;29;20233;-79
2023/12/06 16:25:24;;;;;;;76.63;37.50;;;1.90;99.90;;;;;;10060904;29;20241;-78
2023/12/06 16:30:27;;;;;;;90.57;44.20;;;2.30;99.90;;;;;;10093006;29;20226;-79
2023/12/06 16:35:30;;;;;;;93.53;52.33;;;2.80;99.90;;;;;;10090321;29;20282;-78
2023/12/06 16:40:33;;;;;;;95.57;53.33;;;1.50;99.90;;;;;;10095513;29;20229;-78
2023/12/06 16:45:35;;;;;;;108.80;59.37;;;-0.30;99.90;;;;;;10093714;29;20261;-78
2023/12/06 16:50:38;;;;;;;104.23;53.83;;;-0.90;99.90;;;;;;10094733;29;20266;-78
2023/12/06 16:55:40;;;;;;;113.13;53.60;;;-1.30;99.90;;;;;;9418236;29;10000867;-78
2023/12/06 17:00:56;;;;;;;123.87;62.37;;;-1.50;99.90;;;;;;10091572;29;20340;-79
2023/12/06 17:05:58;;;;;;;120.83;64.00;;;-1.70;99.90;;;;;;10092067;29;20224;-78
2023/12/06 17:11:02;;;;;;;114.27;57.23;;;-1.70;99.90;;;;;;10091858;29;20241;-79
2023/12/06 17:16:05;;;;;;;136.40;65.53;;;-1.80;99.90;;;;;;10091066;29;20331;-78
2023/12/06 17:21:07;;;;;;;122.43;61.03;;;-1.80;99.90;;;;;;10093221;29;20228;-78
2023/12/06 17:26:09;;;;;;;130.40;64.50;;;-1.80;99.90;;;;;;10092367;29;20395;-78
2023/12/06 17:31:12;;;;;;;127.33;63.30;;;-1.90;99.90;;;;;;10092561;29;20698;-78
2023/12/06 17:36:15;;;;;;;124.80;66.00;;;-1.80;99.90;;;;;;10091780;29;20255;-78
2023/12/06 17:41:17;;;;;;;128.90;67.40;;;-1.70;99.90;;;;;;10092840;29;20231;-78
2023/12/06 17:46:20;;;;;;;109.93;44.43;;;-1.70;99.90;;;;;;10088318;29;20667;-79
2023/12/06 17:51:22;;;;;;;98.63;41.70;;;-1.30;99.90;;;;;;9745184;29;10000559;-78
2023/12/06 17:56:25;;;;;;;101.00;44.63;;;-0.40;99.90;;;;;;10088282;29;20366;-79
2023/12/06 18:01:28;;;;;;;75.63;34.33;;;0.70;99.90;;;;;;10088453;29;20228;-78
2023/12/06 18:06:32;;;;;;;89.63;39.90;;;1.40;99.90;;;;;;10088118;29;20705;-79
2023/12/06 18:11:35;;;;;;;75.60;37.77;;;1.70;99.90;;;;;;10086488;29;20292;-79
2023/12/06 18:16:38;;;;;;;97.37;42.53;;;1.70;99.90;;;;;;10082972;29;20338;-78
2023/12/06 18:21:40;;;;;;;74.53;36.37;;;1.80;99.90;;;;;;10081363;29;20233;-78
2023/12/06 18:26:43;;;;;;;68.03;33.80;;;2.30;99.90;;;;;;10085926;29;20288;-78
2023/12/06 18:31:46;;;;;;;74.03;35.87;;;2.40;99.90;;;;;;10087284;29;20331;-78
2023/12/06 18:36:49;;;;;;;75.63;38.20;;;3.00;99.90;;;;;;10086210;29;20269;-79
2023/12/06 18:41:52;;;;;;;81.87;36.73;;;3.20;99.90;;;;;;10087980;29;20289;-78
2023/12/06 18:46:54;;;;;;;94.67;47.27;;;3.30;99.90;;;;;;10088142;29;20246;-78
2023/12/06 18:51:57;;;;;;;89.23;43.57;;;3.20;99.90;;;;;;10068388;29;20249;-79
2023/12/06 18:56:59;;;;;;;97.40;48.67;;;3.50;99.90;;;;;;10065506;29;20326;-78
2023/12/06 19:02:02;;;;;;;97.97;44.43;;;3.30;99.90;;;;;;10078891;29;20302;-78
2023/12/06 19:07:05;;;;;;;127.10;60.50;;;4.60;99.90;;;;;;10058376;29;20316;-78
2023/12/06 19:12:08;;;;;;;96.13;47.37;;;4.10;99.90;;;;;;10047320;29;20247;-78
2023/12/06 19:17:10;;;;;;;94.27;46.87;;;3.60;99.90;;;;;;10096039;29;20255;-78
2023/12/06 19:22:13;;;;;;;77.53;36.70;;;3.60;99.90;;;;;;10091578;29;20277;-78
2023/12/06 19:27:18;;;;;;;110.97;52.23;;;3.50;99.90;;;;;;10048176;29;20302;-78
2023/12/06 19:32:21;;;;;;;100.90;52.77;;;3.00;99.90;;;;;;10080723;29;20236;-78
2023/12/06 19:37:25;;;;;;;83.50;40.97;;;2.90;99.90;;;;;;10085819;29;20329;-78
2023/12/06 19:42:28;;;;;;;84.80;41.80;;;2.70;99.90;;;;;;10087003;29;20237;-78
2023/12/06 19:47:30;;;;;;;101.20;46.93;;;2.80;99.90;;;;;;10085843;29;20233;-77
2023/12/06 19:52:33;;;;;;;76.07;33.97;;;3.10;99.90;;;;;;10085489;29;20238;-78
2023/12/06 19:57:36;;;;;;;86.10;43.03;;;2.90;99.90;;;;;;10053154;29;20722;-78
2023/12/06 20:02:39;;;;;;;90.83;43.80;;;2.90;99.90;;;;;;10082182;29;20270;-78
2023/12/06 20:07:44;;;;;;;80.30;40.33;;;3.30;99.90;;;;;;10086688;29;20293;-78
2023/12/06 20:12:47;;;;;;;77.43;39.47;;;3.10;99.90;;;;;;10058499;29;20300;-78
2023/12/06 20:17:51;;;;;;;105.50;48.77;;;3.00;99.90;;;;;;10102404;29;20340;-78
2023/12/06 20:22:54;;;;;;;100.57;47.40;;;3.00;99.90;;;;;;10078144;29;20300;-79
2023/12/06 20:27:57;;;;;;;92.73;42.63;;;3.00;99.90;;;;;;10047627;29;20402;-79
2023/12/06 20:32:59;;;;;;;67.90;31.23;;;3.10;99.90;;;;;;10047685;29;20258;-79
2023/12/06 20:38:02;;;;;;;74.60;36.47;;;3.50;99.90;;;;;;10048097;29;20313;-77
2023/12/06 20:43:04;;;;;;;91.83;43.33;;;3.60;99.90;;;;;;10055722;29;20282;-78
2023/12/06 20:48:07;;;;;;;120.03;55.93;;;3.40;99.90;;;;;;10060335;29;20298;-77
2023/12/06 20:53:10;;;;;;;81.30;39.87;;;3.50;99.90;;;;;;10086607;29;20669;-77
2023/12/06 20:58:12;;;;;;;61.60;31.60;;;3.60;99.90;;;;;;10051975;29;21114;-78
2023/12/06 21:03:16;;;;;;;109.10;53.13;;;3.70;99.90;;;;;;10053304;29;20249;-77
2023/12/06 21:08:18;;;;;;;123.97;56.60;;;3.90;99.90;;;;;;10054106;29;20242;-77
2023/12/06 21:13:21;;;;;;;96.87;48.70;;;3.70;99.90;;;;;;10053095;29;20247;-77
2023/12/06 21:18:23;;;;;;;88.90;42.80;;;3.40;99.90;;;;;;10078835;29;20810;-78
2023/12/06 21:23:26;;;;;;;95.73;45.90;;;3.60;99.90;;;;;;10052386;29;20241;-78
2023/12/06 21:28:28;;;;;;;87.17;42.70;;;3.50;99.90;;;;;;10051728;29;20322;-78
2023/12/06 21:33:31;;;;;;;106.77;50.23;;;3.20;99.90;;;;;;10061470;29;20234;-77
2023/12/06 21:38:33;;;;;;;86.27;45.60;;;3.20;99.90;;;;;;10089612;29;20714;-78
2023/12/06 21:43:36;;;;;;;85.10;42.30;;;3.30;99.90;;;;;;10089116;29;20758;-78
2023/12/06 21:48:39;;;;;;;73.77;37.03;;;3.20;99.90;;;;;;10075297;29;20348;-77
2023/12/06 21:53:41;;;;;;;82.57;41.73;;;2.90;99.90;;;;;;10050636;29;20687;-77
2023/12/06 21:58:47;;;;;;;97.17;48.23;;;3.20;99.90;;;;;;10051376;29;20243;-78
2023/12/06 22:03:50;;;;;;;102.77;52.73;;;3.20;99.90;;;;;;10052018;29;20716;-78
2023/12/06 22:08:52;;;;;;;97.60;48.17;;;2.90;99.90;;;;;;10073664;29;20258;-78
2023/12/06 22:13:55;;;;;;;88.60;45.23;;;2.90;99.90;;;;;;10052637;29;20297;-78
2023/12/06 22:18:57;;;;;;;89.77;45.27;;;2.90;99.90;;;;;;10123887;29;20688;-78
2023/12/06 22:24:01;;;;;;;97.57;50.40;;;2.50;99.90;;;;;;10127779;29;20236;-78
2023/12/06 22:29:04;;;;;;;107.07;54.93;;;2.20;99.90;;;;;;10087833;29;20265;-78
2023/12/06 22:34:06;;;;;;;106.70;52.23;;;2.30;99.90;;;;;;10088305;29;20249;-78
2023/12/06 22:39:09;;;;;;;99.23;49.77;;;2.30;99.90;;;;;;10087954;29;20294;-78
2023/12/06 22:44:11;;;;;;;91.40;46.93;;;2.30;99.90;;;;;;10074061;29;20294;-78
2023/12/06 22:49:14;;;;;;;97.07;51.10;;;2.40;99.90;;;;;;10086658;29;20242;-78
2023/12/06 22:54:17;;;;;;;94.13;47.20;;;2.40;99.90;;;;;;10083887;29;20316;-78
2023/12/06 22:59:19;;;;;;;101.93;51.20;;;2.30;99.90;;;;;;10049905;29;20299;-78
2023/12/06 23:04:22;;;;;;;96.10;52.90;;;2.30;99.90;;;;;;10047568;29;20252;-78
2023/12/06 23:09:25;;;;;;;113.73;56.07;;;2.30;99.90;;;;;;10075798;29;20242;-78
2023/12/06 23:14:27;;;;;;;89.00;45.63;;;3.10;99.90;;;;;;10096602;29;20256;-78
2023/12/06 23:19:30;;;;;;;106.20;53.60;;;3.20;99.90;;;;;;10088886;29;20272;-78
2023/12/06 23:24:33;;;;;;;80.37;40.00;;;3.10;99.90;;;;;;10115121;29;20631;-78
2023/12/06 23:29:35;;;;;;;79.97;40.63;;;3.20;99.90;;;;;;10091986;29;20335;-78
2023/12/06 23:34:40;;;;;;;98.40;49.13;;;3.20;99.90;;;;;;10083051;29;20258;-78
2023/12/06 23:39:43;;;;;;;87.97;44.67;;;3.00;99.90;;;;;;10088948;29;20302;-79
2023/12/06 23:44:45;;;;;;;110.23;53.50;;;3.00;99.90;;;;;;10089609;29;20310;-78
2023/12/06 23:49:48;;;;;;;81.30;41.53;;;3.00;99.90;;;;;;10068151;29;20250;-78
2023/12/06 23:54:50;;;;;;;152.07;72.70;;;2.50;99.90;;;;;;10050395;29;20306;-79
2023/12/06 23:59:53;;;;;;;90.40;41.63;;;2.40;99.90;;;;;;10072219;29;20689;-79
